Time;durP1;ratioP1;P1;durP2;ratioP2;P2;SDS_P1;SDS_P2;PMS_P1;PMS_P2;Temp;Humidity;BMP_temperature;BMP_pressure;BME280_temperature;BME280_humidity;BME280_pressure;Samples;Min_cycle;Max_cycle;Signal;HPM_P1;HPM_P2
2023/04/25 00:00:34;;;;;;;1.75;0.93;;;;;;;11.79;87.77;99685.38;5082838;28;20041;-56
2023/04/25 00:03:00;;;;;;;1.08;0.73;;;;;;;11.78;88.55;99693.88;5077758;28;20107;-53
2023/04/25 00:05:29;;;;;;;0.77;0.50;;;;;;;11.74;88.31;99685.00;5090297;28;20028;-54
2023/04/25 00:07:54;;;;;;;1.80;0.60;;;;;;;11.57;89.24;99688.44;5091885;28;20082;-58
2023/04/25 00:10:20;;;;;;;1.65;0.85;;;;;;;11.75;88.91;99691.94;5090331;28;20063;-56
2023/04/25 00:12:46;;;;;;;3.30;0.68;;;;;;;11.79;88.28;99690.00;5087201;28;20023;-53
2023/04/25 00:15:12;;;;;;;0.73;0.73;;;;;;;11.60;88.83;99693.06;5096449;28;20047;-54
2023/04/25 00:17:38;;;;;;;0.57;0.40;;;;;;;11.51;90.18;99690.75;5095941;28;20036;-56
2023/04/25 00:20:04;;;;;;;1.42;1.02;;;;;;;11.53;90.13;99687.69;5088761;28;20032;-56
2023/04/25 00:22:31;;;;;;;6.25;0.95;;;;;;;11.68;89.29;99692.72;5090055;28;20088;-53
2023/04/25 00:24:59;;;;;;;0.40;0.40;;;;;;;11.57;90.33;99694.63;5095576;28;20032;-57
2023/04/25 00:27:26;;;;;;;1.58;0.85;;;;;;;11.63;89.86;99703.09;5090018;28;20063;-56
2023/04/25 00:29:51;;;;;;;0.45;0.45;;;;;;;11.66;89.65;99702.34;5093375;28;20070;-59
2023/04/25 00:32:17;;;;;;;0.80;0.70;;;;;;;11.54;90.21;99705.38;5094156;28;20363;-51
2023/04/25 00:34:42;;;;;;;0.60;0.60;;;;;;;11.59;90.03;99696.94;5092578;28;20020;-55
2023/04/25 00:37:08;;;;;;;0.50;0.50;;;;;;;11.52;90.50;99707.69;5093750;28;20043;-52
2023/04/25 00:39:33;;;;;;;0.68;0.47;;;;;;;11.52;90.21;99713.84;5094178;28;20031;-55
2023/04/25 00:42:00;;;;;;;0.82;0.60;;;;;;;11.51;90.68;99711.56;5107669;22;20044;-69
2023/04/25 00:44:27;;;;;;;0.52;0.52;;;;;;;11.51;90.13;99700.78;5090103;28;20036;-69
2023/04/25 00:46:54;;;;;;;5.38;0.73;;;;;;;11.25;90.31;99709.19;5095755;28;20032;-70
2023/04/25 00:49:19;;;;;;;0.50;0.38;;;;;;;11.29;91.35;99710.75;5075632;28;20028;-70
2023/04/25 00:51:45;;;;;;;0.47;0.47;;;;;;;11.14;91.98;99714.56;5094794;28;20514;-70
2023/04/25 00:54:12;;;;;;;0.25;0.25;;;;;;;11.24;91.81;99716.53;5092652;28;20091;-70
2023/04/25 00:56:38;;;;;;;0.50;0.43;;;;;;;11.30;91.97;99716.91;5097758;28;20038;-70
2023/04/25 00:59:04;;;;;;;0.55;0.55;;;;;;;11.20;91.62;99725.75;5094698;28;20028;-70
2023/04/25 01:01:31;;;;;;;0.38;0.38;;;;;;;11.21;91.99;99722.66;5095147;28;20089;-70
2023/04/25 01:04:01;;;;;;;3.13;1.02;;;;;;;11.13;91.03;99725.75;5090472;28;20028;-68
2023/04/25 01:06:27;;;;;;;0.97;0.50;;;;;;;11.19;90.80;99732.31;5092427;28;20034;-69
2023/04/25 01:08:53;;;;;;;0.55;0.50;;;;;;;11.36;89.75;99728.88;5095463;28;20032;-68
2023/04/25 01:11:19;;;;;;;0.45;0.45;;;;;;;11.30;88.71;99736.56;5095334;28;20040;-69
2023/04/25 01:13:45;;;;;;;8.68;0.55;;;;;;;11.27;88.90;99731.13;5093882;28;20052;-66
2023/04/25 01:16:11;;;;;;;0.30;0.30;;;;;;;11.15;88.75;99726.13;5093114;28;20074;-69
2023/04/25 01:18:39;;;;;;;0.40;0.40;;;;;;;11.24;87.69;99734.59;5091620;28;20559;-66
2023/04/25 01:21:10;;;;;;;0.20;0.20;;;;;;;11.19;87.67;99733.06;5092357;28;20036;-69
2023/04/25 01:23:38;;;;;;;1.25;0.68;;;;;;;11.16;87.36;99730.34;5089014;28;20618;-67
2023/04/25 01:26:06;;;;;;;1.27;0.35;;;;;;;11.05;87.35;99730.34;5092989;28;20579;-68
2023/04/25 01:28:33;;;;;;;1.00;0.80;;;;;;;11.03;87.69;99727.25;5093829;28;20032;-67
2023/04/25 01:30:59;;;;;;;0.52;0.52;;;;;;;11.07;87.13;99736.09;5091252;28;20055;-68
2023/04/25 01:33:44;;;;;;;0.22;0.22;;;;;;;11.12;86.24;99734.97;5090084;28;20050;-67
2023/04/25 01:36:10;;;;;;;1.45;0.77;;;;;;;11.17;85.03;99740.00;5092376;28;20028;-66
2023/04/25 01:38:36;;;;;;;3.55;0.65;;;;;;;10.95;85.62;99732.97;5082823;28;20043;-67
2023/04/25 01:41:02;;;;;;;1.50;1.42;;;;;;;11.14;83.91;99741.50;5090656;28;20070;-67
2023/04/25 01:43:27;;;;;;;0.45;0.45;;;;;;;11.07;83.93;99746.13;5092247;28;20024;-66
2023/04/25 01:45:53;;;;;;;11.00;0.75;;;;;;;11.04;84.20;99746.84;5082536;28;20027;-68
2023/04/25 01:48:21;;;;;;;0.65;0.55;;;;;;;11.01;84.18;99742.25;5092740;28;20089;-68
2023/04/25 01:50:47;;;;;;;2.70;0.57;;;;;;;11.02;83.57;99746.47;5091711;28;20425;-68
2023/04/25 01:53:14;;;;;;;0.30;0.30;;;;;;;11.16;82.02;99744.59;5070530;28;20027;-68
2023/04/25 01:55:42;;;;;;;0.50;0.50;;;;;;;10.99;82.43;99744.53;5062466;28;20028;-68
2023/04/25 01:58:12;;;;;;;13.75;0.52;;;;;;;11.04;82.70;99741.47;5090254;28;20377;-67
2023/04/25 02:01:01;;;;;;;2.08;0.77;;;;;;;10.79;81.27;99747.53;5086238;28;20536;-67
2023/04/25 02:03:33;;;;;;;0.38;0.38;;;;;;;10.69;82.27;99753.66;5091352;28;20028;-67
2023/04/25 02:06:00;;;;;;;0.75;0.40;;;;;;;10.81;81.96;99739.84;5091552;28;20518;-68
2023/04/25 02:08:26;;;;;;;5.03;0.43;;;;;;;10.71;81.45;99745.97;5091020;28;20727;-67
2023/04/25 02:14:37;;;;;;;3.33;0.50;;;;;;;10.60;81.53;99766.69;5078883;28;20668;-66
2023/04/25 02:17:13;;;;;;;1.35;0.52;;;;;;;10.86;79.59;99774.50;5087789;28;20369;-66
2023/04/25 02:19:38;;;;;;;2.05;0.63;;;;;;;10.74;79.70;99766.75;5074601;28;20109;-67
2023/04/25 02:22:06;;;;;;;0.98;0.40;;;;;;;10.61;79.55;99770.13;5091174;28;20533;-67
2023/04/25 02:24:33;;;;;;;0.40;0.40;;;;;;;10.70;79.20;99765.94;5091363;28;20043;-68
2023/04/25 02:26:59;;;;;;;1.00;0.63;;;;;;;10.73;79.12;99770.59;5087790;28;20032;-68
2023/04/25 02:29:25;;;;;;;0.57;0.30;;;;;;;10.86;78.36;99774.50;5089700;28;20038;-68
2023/04/25 02:31:50;;;;;;;4.63;0.93;;;;;;;10.84;78.11;99776.78;5092122;28;20365;-67
2023/04/25 02:34:16;;;;;;;0.95;0.50;;;;;;;10.67;78.23;99777.47;5085224;28;20024;-67
2023/04/25 02:36:42;;;;;;;0.73;0.73;;;;;;;10.81;77.65;99780.25;5091651;28;20556;-68
2023/04/25 02:39:07;;;;;;;1.65;0.60;;;;;;;10.74;77.52;99776.75;5088578;28;20036;-68
2023/04/25 02:41:36;;;;;;;1.35;0.43;;;;;;;10.83;76.87;99771.78;5090357;28;20435;-67
2023/04/25 02:44:02;;;;;;;1.20;1.02;;;;;;;10.73;76.73;99770.59;5080679;28;20037;-68
2023/04/25 02:46:28;;;;;;;2.13;0.82;;;;;;;10.51;76.38;99774.31;5086911;28;20407;-67
2023/04/25 02:48:53;;;;;;;1.85;1.42;;;;;;;10.40;76.56;99770.78;5088980;28;20107;-67
2023/04/25 02:51:19;;;;;;;0.30;0.30;;;;;;;10.29;76.71;99777.25;5091553;28;20400;-68
2023/04/25 02:53:44;;;;;;;2.53;0.40;;;;;;;10.24;76.90;99772.22;5086434;28;20024;-69
2023/04/25 02:56:10;;;;;;;1.50;1.35;;;;;;;10.32;76.29;99782.63;5086397;28;20028;-67
2023/04/25 02:58:36;;;;;;;1.65;0.47;;;;;;;10.14;77.21;99783.66;5090252;28;20070;-67
2023/04/25 03:01:01;;;;;;;0.60;0.60;;;;;;;10.28;76.51;99773.78;5087930;28;20036;-67
2023/04/25 03:03:27;;;;;;;0.50;0.50;;;;;;;10.35;75.89;99783.81;5088608;28;20039;-68
2023/04/25 03:05:53;;;;;;;0.38;0.38;;;;;;;10.42;75.68;99781.94;5089614;28;20028;-68
2023/04/25 03:08:25;;;;;;;5.07;1.02;;;;;;;10.55;74.59;99785.13;5086922;28;20032;-69
2023/04/25 03:10:51;;;;;;;0.43;0.40;;;;;;;10.69;73.99;99780.56;5086340;28;20043;-68
2023/04/25 03:21:41;;;;;;;0.40;0.32;;;;;;;10.32;74.19;99795.31;5066163;28;20602;-68
2023/04/25 03:25:26;;;;;;;2.88;0.63;;;;;;;10.35;73.20;99802.66;4984951;28;20105;-68
2023/04/25 03:29:29;;;;;;;0.30;0.30;;;;;;;10.17;73.35;99805.22;4974742;28;20045;-68
2023/04/25 03:36:52;;;;;;;0.50;0.50;;;;;;;10.12;72.24;99815.53;4908392;29;20516;-68
2023/04/25 03:44:20;;;;;;;0.75;0.65;;;;;;;10.00;71.83;99824.66;4931679;29;20603;-67
2023/04/25 03:47:08;;;;;;;9.40;0.52;;;;;;;9.80;72.29;99817.91;4931961;29;20458;-67
2023/04/25 03:49:35;;;;;;;1.73;0.50;;;;;;;9.68;72.60;99828.91;4962248;28;20038;-68
2023/04/25 03:52:03;;;;;;;0.70;0.70;;;;;;;9.79;71.87;99824.44;4984203;28;20046;-67
2023/04/25 03:54:34;;;;;;;0.50;0.40;;;;;;;9.54;72.06;99832.22;5048128;28;20055;-68
2023/04/25 03:57:12;;;;;;;1.00;0.55;;;;;;;9.73;70.23;99836.66;5090507;28;20043;-67
2023/04/25 03:59:39;;;;;;;0.30;0.30;;;;;;;9.60;70.20;99827.31;5075645;28;20036;-69
2023/04/25 04:02:06;;;;;;;0.75;0.75;;;;;;;9.58;70.22;99833.03;5074738;28;20031;-67
2023/04/25 04:04:34;;;;;;;1.40;0.50;;;;;;;9.67;69.56;99832.75;5070404;28;20029;-68
2023/04/25 04:07:00;;;;;;;0.40;0.40;;;;;;;9.70;69.42;99846.25;5080883;28;20039;-69
2023/04/25 04:09:29;;;;;;;0.70;0.70;;;;;;;9.69;68.27;99841.25;5090350;28;20051;-67
2023/04/25 04:11:56;;;;;;;0.60;0.50;;;;;;;9.64;69.10;99849.66;5088517;28;20027;-67
2023/04/25 04:14:22;;;;;;;0.68;0.35;;;;;;;9.85;67.71;99850.59;5068698;28;20565;-68
2023/04/25 04:16:51;;;;;;;1.38;0.82;;;;;;;9.84;66.73;99862.53;5066834;28;20063;-68
2023/04/25 04:19:17;;;;;;;0.25;0.25;;;;;;;9.95;65.59;99843.78;5076900;28;20035;-67
2023/04/25 04:22:01;;;;;;;1.27;0.20;;;;;;;9.73;65.85;99850.91;5086169;28;20039;-69
2023/04/25 04:24:26;;;;;;;0.57;0.50;;;;;;;9.47;66.09;99859.03;5086624;28;20103;-68
2023/04/25 04:26:57;;;;;;;0.30;0.28;;;;;;;9.48;66.39;99862.50;5064895;28;20051;-69
2023/04/25 04:29:55;;;;;;;0.90;0.90;;;;;;;9.66;65.95;99869.63;5059580;28;20090;-68
2023/04/25 04:32:30;;;;;;;1.00;0.73;;;;;;;9.83;63.90;99857.53;5078536;28;20438;-68
2023/04/25 04:34:56;;;;;;;4.32;1.10;;;;;;;9.68;63.78;99861.19;5086350;28;20028;-67
2023/04/25 04:37:23;;;;;;;1.88;0.40;;;;;;;9.59;64.30;99863.41;5089475;28;20119;-67
2023/04/25 04:39:50;;;;;;;2.92;0.98;;;;;;;9.72;62.39;99876.22;5089692;28;20573;-68
2023/04/25 04:42:25;;;;;;;0.20;0.20;;;;;;;9.58;63.82;99870.69;5085669;28;20078;-68
2023/04/25 04:45:20;;;;;;;7.95;0.80;;;;;;;9.74;63.62;99873.16;5069745;28;20040;-68
2023/04/25 04:48:06;;;;;;;0.40;0.30;;;;;;;9.57;64.56;99881.81;5082008;28;20392;-69
2023/04/25 04:50:53;;;;;;;3.45;0.63;;;;;;;9.70;64.18;99885.78;5082987;28;20045;-68
2023/04/25 04:53:51;;;;;;;0.35;0.35;;;;;;;9.65;64.85;99886.13;5066158;28;20407;-69
2023/04/25 04:56:45;;;;;;;1.13;0.50;;;;;;;9.67;64.66;99891.91;5088308;28;20081;-69
2023/04/25 04:59:45;;;;;;;0.50;0.43;;;;;;;9.80;64.75;99891.28;5077786;28;20492;-68
2023/04/25 05:02:40;;;;;;;1.00;0.60;;;;;;;9.88;64.55;99894.81;5082484;28;20063;-68
2023/04/25 05:05:24;;;;;;;0.68;0.68;;;;;;;9.86;63.97;99902.47;5087027;28;20059;-68
2023/04/25 05:08:09;;;;;;;0.32;0.32;;;;;;;9.83;64.63;99903.22;5084143;28;20035;-68
2023/04/25 05:10:51;;;;;;;0.85;0.63;;;;;;;9.98;63.86;99907.63;5071459;28;20473;-68
2023/04/25 05:13:23;;;;;;;0.95;0.95;;;;;;;9.88;64.36;99909.06;5078033;28;20039;-69
2023/04/25 05:16:01;;;;;;;1.95;0.30;;;;;;;10.03;63.92;99899.97;5084222;28;20066;-68
2023/04/25 05:18:37;;;;;;;3.95;0.47;;;;;;;10.12;63.56;99907.00;5072788;28;20032;-68
2023/04/25 05:21:22;;;;;;;0.40;0.40;;;;;;;10.15;64.06;99907.03;5090061;28;20024;-69
2023/04/25 05:24:05;;;;;;;0.65;0.47;;;;;;;10.22;63.09;99917.09;5082640;28;20099;-68
2023/04/25 05:26:53;;;;;;;0.28;0.28;;;;;;;10.16;64.03;99913.19;5083522;28;20040;-68
2023/04/25 05:29:37;;;;;;;7.88;1.23;;;;;;;10.11;65.07;99926.97;5089786;28;20047;-68
2023/04/25 05:32:18;;;;;;;1.30;0.38;;;;;;;10.24;64.91;99933.66;5083751;28;20046;-70
2023/04/25 05:34:46;;;;;;;0.93;0.63;;;;;;;10.27;64.69;99935.59;5085978;28;20122;-67
2023/04/25 05:37:21;;;;;;;0.70;0.50;;;;;;;10.36;64.64;99942.22;5076412;28;20298;-68
2023/04/25 05:40:06;;;;;;;0.32;0.32;;;;;;;10.28;64.98;99926.41;5077836;28;20074;-68
2023/04/25 05:42:54;;;;;;;0.53;0.53;;;;;;;10.14;65.95;99937.00;5085233;28;20101;-68
2023/04/25 05:45:42;;;;;;;2.17;0.75;;;;;;;10.23;65.03;99937.47;5067167;28;20024;-67
2023/04/25 05:48:25;;;;;;;0.90;0.85;;;;;;;10.17;64.68;99936.25;5092364;28;20119;-69
2023/04/25 05:51:18;;;;;;;4.25;1.05;;;;;;;10.11;65.02;99935.03;5091542;28;20044;-67
2023/04/25 05:54:09;;;;;;;0.50;0.38;;;;;;;9.98;66.02;99950.66;5088461;28;20032;-68
2023/04/25 05:56:35;;;;;;;8.48;0.57;;;;;;;9.90;66.96;99949.00;5072424;28;20035;-68
2023/04/25 05:59:01;;;;;;;1.83;0.65;;;;;;;10.08;66.52;99955.38;5072431;28;20497;-68
2023/04/25 06:01:26;;;;;;;2.30;0.80;;;;;;;9.94;66.46;99944.44;5055341;28;20028;-68
2023/04/25 06:03:52;;;;;;;0.30;0.30;;;;;;;9.94;66.53;99952.53;5074176;28;20111;-69
2023/04/25 06:06:18;;;;;;;0.20;0.20;;;;;;;10.02;66.68;99959.53;5083823;28;20027;-71
2023/04/25 06:08:44;;;;;;;0.82;0.40;;;;;;;10.17;65.56;99955.88;5091420;28;20510;-68
2023/04/25 06:11:11;;;;;;;0.40;0.40;;;;;;;10.08;65.93;99955.38;5091539;28;20058;-67
2023/04/25 06:13:36;;;;;;;3.03;0.60;;;;;;;9.92;67.48;99960.97;5091643;28;20028;-68
2023/04/25 06:16:02;;;;;;;0.50;0.50;;;;;;;9.99;68.10;99960.25;5088549;28;20031;-68
2023/04/25 06:18:27;;;;;;;0.40;0.30;;;;;;;10.03;68.76;99961.84;5070978;28;20504;-68
2023/04/25 06:20:53;;;;;;;1.65;0.40;;;;;;;10.32;67.63;99965.63;5071167;28;20067;-69
2023/04/25 06:23:18;;;;;;;0.52;0.52;;;;;;;10.30;66.68;99961.78;5071963;28;20377;-67
2023/04/25 06:26:00;;;;;;;0.38;0.38;;;;;;;10.25;68.24;99959.41;5074464;28;20036;-67
2023/04/25 06:28:27;;;;;;;1.25;1.00;;;;;;;10.55;67.31;99963.53;5087420;28;20782;-68
2023/04/25 06:30:52;;;;;;;5.40;0.93;;;;;;;10.69;66.24;99969.06;5090276;28;20120;-67
2023/04/25 06:33:20;;;;;;;1.02;0.93;;;;;;;10.74;66.17;99971.41;5089941;28;20031;-69
2023/04/25 06:35:46;;;;;;;0.82;0.32;;;;;;;10.60;66.61;99970.50;5069568;28;20024;-68
2023/04/25 06:38:13;;;;;;;0.73;0.40;;;;;;;10.69;66.57;99970.97;5086912;28;20059;-68
2023/04/25 06:40:43;;;;;;;0.30;0.30;;;;;;;10.78;66.22;99963.38;5087468;22;20373;-66
2023/04/25 06:43:09;;;;;;;0.57;0.50;;;;;;;10.85;65.87;99958.03;5046816;28;20106;-67
2023/04/25 06:45:55;;;;;;;3.97;0.60;;;;;;;11.02;64.70;99970.84;5030414;28;20054;-66
2023/04/25 06:48:22;;;;;;;0.70;0.70;;;;;;;10.94;63.44;99976.59;5044820;28;20029;-67
2023/04/25 06:50:48;;;;;;;0.47;0.30;;;;;;;10.85;64.04;99977.66;5036560;28;20461;-66
2023/04/25 06:53:13;;;;;;;0.40;0.40;;;;;;;10.62;65.06;99970.91;5052554;28;20047;-67
2023/04/25 06:55:41;;;;;;;0.30;0.30;;;;;;;10.73;64.73;99987.94;5066417;28;20442;-67
2023/04/25 06:58:12;;;;;;;0.30;0.30;;;;;;;10.69;65.33;99984.44;5052827;28;20048;-65
2023/04/25 07:00:57;;;;;;;0.30;0.30;;;;;;;10.72;66.74;99981.78;5051844;28;20032;-66
2023/04/25 07:03:25;;;;;;;1.65;0.95;;;;;;;10.78;66.89;99987.59;5048977;28;20021;-66
2023/04/25 07:05:54;;;;;;;0.43;0.43;;;;;;;11.05;66.30;99993.59;5048202;28;20056;-65
2023/04/25 07:08:21;;;;;;;0.30;0.30;;;;;;;11.11;67.35;99982.06;5069441;28;20477;-66
2023/04/25 07:10:46;;;;;;;0.30;0.30;;;;;;;11.12;66.86;99991.72;5052371;28;20024;-66
2023/04/25 07:13:12;;;;;;;0.45;0.45;;;;;;;11.26;64.46;99991.81;5069712;28;20412;-66
2023/04/25 07:15:37;;;;;;;0.20;0.20;;;;;;;11.17;64.49;99994.06;5048474;28;20107;-65
2023/04/25 07:18:03;;;;;;;1.50;0.50;;;;;;;11.21;65.29;99994.06;5050451;28;20044;-66
2023/04/25 07:20:30;;;;;;;1.88;0.30;;;;;;;11.41;64.45;99988.06;5053159;28;20504;-66
2023/04/25 07:22:57;;;;;;;0.93;0.73;;;;;;;11.46;64.93;100000.41;5048355;28;20094;-66
2023/04/25 07:25:22;;;;;;;0.75;0.40;;;;;;;11.60;64.95;99995.09;5033318;28;20551;-66
2023/04/25 07:27:49;;;;;;;2.90;0.32;;;;;;;11.62;63.05;99998.19;5055717;28;20024;-65
2023/04/25 07:30:17;;;;;;;0.32;0.30;;;;;;;11.51;62.98;100005.44;5051050;28;20024;-66
2023/04/25 07:32:42;;;;;;;2.08;0.30;;;;;;;11.49;63.30;100005.06;5048659;28;20085;-66
2023/04/25 07:35:08;;;;;;;0.20;0.20;;;;;;;11.39;63.26;100014.63;5049794;28;20031;-66
2023/04/25 07:37:35;;;;;;;0.30;0.30;;;;;;;11.58;62.73;100014.34;5047555;28;20025;-66
2023/04/25 07:40:10;;;;;;;0.30;0.30;;;;;;;11.42;63.89;100000.38;5041813;28;20054;-67
2023/04/25 07:42:40;;;;;;;0.30;0.30;;;;;;;11.42;64.05;100005.03;5050403;28;20036;-67
2023/04/25 07:45:07;;;;;;;0.32;0.32;;;;;;;11.51;63.64;100010.84;5045796;28;20048;-67
2023/04/25 07:47:33;;;;;;;0.35;0.20;;;;;;;11.46;64.05;100016.56;5045635;28;20511;-66
2023/04/25 07:49:58;;;;;;;1.13;0.55;;;;;;;11.05;65.43;100018.63;5052439;28;20032;-66
2023/04/25 07:52:24;;;;;;;2.28;0.43;;;;;;;10.78;66.38;100019.94;5050005;28;20035;-67
2023/04/25 07:55:00;;;;;;;1.42;0.50;;;;;;;10.88;66.49;100025.41;5050456;28;20052;-66
2023/04/25 07:57:34;;;;;;;0.75;0.63;;;;;;;11.13;65.53;100027.53;5037018;28;20503;-67
2023/04/25 08:00:00;;;;;;;1.25;0.43;;;;;;;11.02;65.69;100026.66;5035990;28;20036;-66
2023/04/25 08:02:30;;;;;;;0.20;0.20;;;;;;;11.10;66.34;100010.19;5047700;28;20028;-66
2023/04/25 08:04:56;;;;;;;3.90;0.85;;;;;;;11.06;67.31;100017.47;5051306;28;20516;-67
2023/04/25 08:07:21;;;;;;;0.20;0.20;;;;;;;11.32;65.26;100017.28;5052588;28;20036;-66
2023/04/25 08:09:51;;;;;;;0.47;0.47;;;;;;;11.46;64.78;100017.34;5032651;28;20500;-67
2023/04/25 08:12:23;;;;;;;0.30;0.30;;;;;;;11.77;63.71;100005.22;5068503;28;20040;-66
2023/04/25 08:14:49;;;;;;;0.28;0.28;;;;;;;11.79;64.15;100014.50;5051671;28;20024;-67
2023/04/25 08:17:15;;;;;;;0.28;0.28;;;;;;;12.11;62.90;100019.25;5030526;28;20443;-66
2023/04/25 08:19:41;;;;;;;3.30;0.38;;;;;;;12.31;62.79;100042.84;5045316;28;20033;-66
2023/04/25 08:22:12;;;;;;;;;;;;;;;12.54;61.15;100040.59;5049132;28;20102;-66
2023/04/25 08:24:48;;;;;;;0.20;0.20;;;;;;;12.62;60.59;100035.97;5042103;28;19921;-67
2023/04/25 08:27:14;;;;;;;2.20;0.15;;;;;;;12.66;58.73;100039.44;5043309;28;20508;-67
2023/04/25 08:29:41;;;;;;;2.17;0.35;;;;;;;12.80;57.31;100039.47;5056165;28;20024;-67
2023/04/25 08:32:07;;;;;;;0.38;0.20;;;;;;;12.74;57.40;100054.53;5051349;28;20093;-67
2023/04/25 08:34:36;;;;;;;0.20;0.20;;;;;;;12.58;57.18;100059.53;5054615;28;20086;-67
2023/04/25 08:37:04;;;;;;;3.05;0.43;;;;;;;12.43;57.35;100056.00;5052271;28;20066;-67
2023/04/25 08:39:56;;;;;;;0.88;0.88;;;;;;;12.26;58.84;100055.94;5048449;28;20021;-68
2023/04/25 08:42:46;;;;;;;1.98;0.60;;;;;;;12.23;58.85;100060.16;5045315;28;20047;-67
2023/04/25 08:45:13;;;;;;;0.43;0.17;;;;;;;12.04;59.92;100065.88;5052534;28;20028;-67
2023/04/25 08:47:45;;;;;;;7.05;0.28;;;;;;;11.97;60.05;100082.03;5054771;28;20120;-67
2023/04/25 08:50:10;;;;;;;0.55;0.55;;;;;;;11.92;60.47;100074.31;5073584;28;20078;-67
2023/04/25 08:52:46;;;;;;;0.52;0.25;;;;;;;11.76;62.03;100076.53;5047587;28;20530;-67
2023/04/25 08:55:13;;;;;;;0.57;0.20;;;;;;;11.67;63.99;100071.44;5065097;28;20020;-67
2023/04/25 08:57:42;;;;;;;0.63;0.28;;;;;;;11.63;64.67;100084.09;5070988;28;20056;-67
2023/04/25 09:00:09;;;;;;;0.22;0.22;;;;;;;11.70;64.43;100080.72;5044886;28;20074;-67
2023/04/25 09:02:39;;;;;;;4.82;0.30;;;;;;;11.90;62.61;100081.22;5050110;28;20055;-67
2023/04/25 09:05:06;;;;;;;0.20;0.17;;;;;;;11.94;63.17;100080.09;5049814;28;20400;-67
2023/04/25 09:07:32;;;;;;;0.20;0.20;;;;;;;12.11;60.55;100074.00;5051939;28;20036;-67
2023/04/25 09:10:01;;;;;;;0.73;0.40;;;;;;;11.94;59.36;100077.41;5054600;28;20032;-67
2023/04/25 09:12:28;;;;;;;0.45;0.45;;;;;;;11.99;59.06;100097.84;5071622;28;20032;-67
2023/04/25 09:15:04;;;;;;;0.10;0.10;;;;;;;12.16;57.96;100092.53;5051711;28;20024;-67
2023/04/25 09:17:57;;;;;;;0.20;0.20;;;;;;;12.43;57.58;100096.50;5054358;28;20028;-67
2023/04/25 09:20:26;;;;;;;3.40;0.47;;;;;;;12.51;57.22;100103.47;5053019;28;20051;-67
2023/04/25 09:23:06;;;;;;;2.05;0.55;;;;;;;12.68;56.74;100101.97;5037691;28;20059;-67
2023/04/25 09:25:36;;;;;;;1.17;0.45;;;;;;;12.88;56.27;100113.22;5050352;28;20054;-66
2023/04/25 09:28:05;;;;;;;0.10;0.10;;;;;;;12.80;58.10;100119.75;5055459;28;20032;-67
2023/04/25 09:30:33;;;;;;;0.20;0.20;;;;;;;12.70;57.86;100116.66;5054420;28;20036;-67
2023/04/25 09:33:08;;;;;;;0.10;0.10;;;;;;;12.64;56.75;100128.97;5049947;28;20032;-66
2023/04/25 09:35:38;;;;;;;0.20;0.20;;;;;;;12.59;56.67;100144.78;5063355;28;20040;-67
2023/04/25 09:38:15;;;;;;;0.05;0.05;;;;;;;12.39;54.71;100138.13;5050840;28;20468;-67
2023/04/25 09:41:21;;;;;;;0.10;0.10;;;;;;;12.37;55.36;100137.75;5041010;28;20044;-67
2023/04/25 09:43:49;;;;;;;1.45;0.30;;;;;;;12.53;55.09;100143.59;5050507;28;20578;-66
2023/04/25 09:46:15;;;;;;;0.20;0.20;;;;;;;12.70;54.84;100153.69;5069837;28;20175;-67
2023/04/25 09:48:50;;;;;;;1.45;0.17;;;;;;;12.75;54.22;100141.75;5054064;28;20059;-67
2023/04/25 09:51:17;;;;;;;0.52;0.40;;;;;;;13.22;55.94;100155.03;5052874;28;20048;-67
2023/04/25 09:53:52;;;;;;;0.40;0.17;;;;;;;13.89;53.26;100144.97;5056145;28;20115;-67
2023/04/25 09:56:39;;;;;;;0.17;0.15;;;;;;;14.34;51.16;100165.78;5072649;28;20098;-67
2023/04/25 09:59:08;;;;;;;0.60;0.60;;;;;;;14.40;51.11;100156.09;5054162;28;20028;-67
2023/04/25 10:01:39;;;;;;;0.15;0.15;;;;;;;14.41;51.63;100195.56;5029245;28;20412;-67
2023/04/25 10:04:11;;;;;;;0.10;0.10;;;;;;;14.05;56.24;100204.88;5052544;28;20024;-67
2023/04/25 10:06:49;;;;;;;0.70;0.17;;;;;;;13.58;59.63;100194.47;5070327;28;20072;-67
2023/04/25 10:09:17;;;;;;;0.25;0.10;;;;;;;13.53;61.04;100192.13;5031583;28;20563;-67
2023/04/25 10:11:46;;;;;;;0.10;0.10;;;;;;;13.36;63.44;100190.97;5059300;28;20059;-67
2023/04/25 10:14:12;;;;;;;0.30;0.20;;;;;;;13.51;63.76;100184.41;5051923;28;20519;-67
2023/04/25 10:16:38;;;;;;;1.85;0.30;;;;;;;13.77;62.37;100175.16;5065012;28;20484;-67
2023/04/25 10:19:04;;;;;;;0.75;0.75;;;;;;;13.87;60.36;100192.53;5071591;28;20040;-67
2023/04/25 10:21:32;;;;;;;0.20;0.20;;;;;;;13.81;60.72;100188.66;5048242;28;20517;-67
2023/04/25 10:23:58;;;;;;;0.40;0.30;;;;;;;14.18;58.42;100181.69;5069673;28;20036;-67
2023/04/25 10:26:24;;;;;;;0.20;0.10;;;;;;;14.33;57.96;100177.78;5051816;28;20467;-67
2023/04/25 10:29:02;;;;;;;2.05;0.35;;;;;;;14.75;56.25;100185.00;5068219;28;20052;-67
2023/04/25 10:31:29;;;;;;;0.05;0.05;;;;;;;14.95;54.71;100183.34;5066841;28;20040;-67
2023/04/25 10:33:55;;;;;;;0.00;0.00;;;;;;;15.28;53.19;100193.63;5068804;28;20035;-67
2023/04/25 10:36:22;;;;;;;0.00;0.00;;;;;;;15.58;52.22;100184.91;5069767;28;20036;-67
2023/04/25 10:38:52;;;;;;;0.52;0.20;;;;;;;15.70;51.75;100187.13;5061727;28;20112;-67
2023/04/25 10:41:21;;;;;;;2.90;0.13;;;;;;;15.89;50.48;100183.13;5029995;28;20060;-67
2023/04/25 10:43:58;;;;;;;0.52;0.20;;;;;;;15.92;49.57;100188.50;5065326;28;20024;-64
2023/04/25 10:46:26;;;;;;;0.38;0.10;;;;;;;15.63;48.81;100186.44;5052693;28;20156;-67
2023/04/25 10:48:56;;;;;;;1.15;0.22;;;;;;;15.42;46.64;100198.22;5068810;28;20099;-67
2023/04/25 10:51:24;;;;;;;0.00;0.00;;;;;;;15.39;46.79;100196.25;5043218;28;20064;-67
2023/04/25 10:53:55;;;;;;;0.25;0.10;;;;;;;15.53;47.62;100196.19;5070242;28;20082;-67
2023/04/25 10:56:21;;;;;;;0.10;0.10;;;;;;;16.02;46.63;100197.72;5052046;28;20050;-67
2023/04/25 10:58:47;;;;;;;2.05;0.17;;;;;;;16.25;45.12;100187.81;5067482;28;20040;-67
2023/04/25 11:01:19;;;;;;;0.30;0.25;;;;;;;16.27;45.42;100192.81;5065128;28;20039;-67
2023/04/25 11:03:46;;;;;;;0.10;0.10;;;;;;;16.03;45.81;100183.75;5059207;28;20024;-67
2023/04/25 11:06:26;;;;;;;2.72;0.30;;;;;;;16.07;46.15;100194.56;5064871;28;20120;-67
2023/04/25 11:08:51;;;;;;;0.25;0.10;;;;;;;16.35;44.46;100196.25;5045632;28;20492;-67
2023/04/25 11:11:18;;;;;;;0.30;0.10;;;;;;;16.52;43.97;100187.13;5069870;28;20119;-67
2023/04/25 11:13:44;;;;;;;2.30;0.10;;;;;;;16.49;44.73;100194.16;5070368;28;21751;-67
2023/04/25 11:16:10;;;;;;;0.95;0.10;;;;;;;16.42;44.63;100183.34;5050640;28;20207;-67
2023/04/25 11:18:35;;;;;;;0.30;0.30;;;;;;;16.33;44.78;100196.66;5039682;28;20044;-67
2023/04/25 11:21:02;;;;;;;0.35;0.20;;;;;;;16.22;45.24;100202.19;5066659;28;20985;-67
2023/04/25 11:23:29;;;;;;;0.30;0.20;;;;;;;16.03;45.30;100205.47;5064944;28;20086;-67
2023/04/25 11:25:55;;;;;;;0.45;0.45;;;;;;;15.75;47.25;100203.00;5050156;28;20087;-67
2023/04/25 11:28:24;;;;;;;0.65;0.38;;;;;;;15.25;48.09;100209.94;5045583;28;20044;-67
2023/04/25 11:30:50;;;;;;;0.10;0.10;;;;;;;15.03;50.28;100201.13;5070900;28;20047;-67
2023/04/25 11:33:16;;;;;;;0.30;0.05;;;;;;;15.15;49.56;100199.91;5069540;28;20461;-67
2023/04/25 11:35:42;;;;;;;0.57;0.20;;;;;;;15.58;49.03;100206.63;5044731;28;20063;-67
2023/04/25 11:38:08;;;;;;;0.13;0.10;;;;;;;15.89;49.61;100211.03;5050669;28;20079;-67
2023/04/25 11:40:35;;;;;;;0.10;0.10;;;;;;;16.02;47.90;100209.38;5045835;28;20028;-67
2023/04/25 11:43:01;;;;;;;0.45;0.20;;;;;;;15.69;47.42;100215.47;5069019;28;20055;-67
2023/04/25 11:45:28;;;;;;;0.20;0.20;;;;;;;15.40;48.67;100205.97;5046303;28;20036;-67
2023/04/25 11:47:54;;;;;;;0.20;0.20;;;;;;;15.27;50.11;100213.03;5050387;28;20059;-66
2023/04/25 11:50:19;;;;;;;0.20;0.20;;;;;;;15.45;50.24;100224.53;5052598;28;20773;-66
2023/04/25 11:52:47;;;;;;;0.00;0.00;;;;;;;15.25;50.37;100226.22;5069299;28;20209;-67
2023/04/25 11:55:15;;;;;;;0.00;0.00;;;;;;;15.33;49.14;100233.13;5053299;28;20115;-66
2023/04/25 11:57:42;;;;;;;0.28;0.10;;;;;;;15.04;49.07;100239.88;5071847;28;20111;-66
2023/04/25 12:00:12;;;;;;;0.10;0.10;;;;;;;14.61;49.17;100252.03;5049830;28;20501;-67
2023/04/25 12:02:46;;;;;;;0.00;0.00;;;;;;;14.02;50.14;100243.59;5063821;28;20040;-66
2023/04/25 12:05:13;;;;;;;0.20;0.20;;;;;;;14.03;50.15;100245.13;5069256;28;20039;-67
2023/04/25 12:07:38;;;;;;;0.00;0.00;;;;;;;13.94;50.22;100258.28;5071935;28;20028;-66
2023/04/25 12:10:07;;;;;;;0.30;0.10;;;;;;;14.14;48.86;100258.66;5069068;28;20504;-67